Time;durP1;ratioP1;P1;durP2;ratioP2;P2;SDS_P1;SDS_P2;PMS_P1;PMS_P2;Temp;Humidity;BMP_temperature;BMP_pressure;BME280_temperature;BME280_humidity;BME280_pressure;Samples;Min_cycle;Max_cycle;Signal;HPM_P1;HPM_P2
2020/12/06 00:00:31;;;;;;;9.57;4.73;;;6.70;99.90;;;;;;4223554;27;20713;-42
2020/12/06 00:02:32;;;;;;;9.70;4.50;;;6.70;99.90;;;;;;4239686;27;20076;-44
2020/12/06 00:04:33;;;;;;;7.03;4.43;;;6.70;99.90;;;;;;4238342;27;20031;-47
2020/12/06 00:06:35;;;;;;;7.90;5.40;;;6.80;99.90;;;;;;4239249;27;20080;-43
2020/12/06 00:08:36;;;;;;;8.57;4.70;;;6.80;99.90;;;;;;4238659;28;20479;-40
2020/12/06 00:10:37;;;;;;;8.13;5.10;;;6.80;99.90;;;;;;4239283;27;20039;-43
2020/12/06 00:12:39;;;;;;;8.80;4.93;;;6.80;99.90;;;;;;4238052;28;20035;-42
2020/12/06 00:14:40;;;;;;;8.30;4.77;;;6.80;99.90;;;;;;4240138;28;20072;-53
2020/12/06 00:16:41;;;;;;;8.47;4.47;;;6.70;99.90;;;;;;4238220;28;20376;-46
2020/12/06 00:18:45;;;;;;;7.87;5.13;;;6.70;99.90;;;;;;4239726;28;20061;-42
2020/12/06 00:20:46;;;;;;;9.33;5.33;;;6.60;99.90;;;;;;4237782;28;20027;-40
2020/12/06 00:22:47;;;;;;;9.37;5.00;;;6.60;99.90;;;;;;4239045;28;20039;-41
2020/12/06 00:24:49;;;;;;;8.63;4.43;;;6.60;99.90;;;;;;4238016;28;20428;-39
2020/12/06 00:26:50;;;;;;;8.27;4.80;;;6.60;99.90;;;;;;4238342;28;20043;-48
2020/12/06 00:28:52;;;;;;;8.20;4.80;;;6.60;99.90;;;;;;4238609;28;20085;-43
2020/12/06 00:30:53;;;;;;;8.60;4.80;;;6.60;99.90;;;;;;4237827;28;20035;-39
2020/12/06 00:32:54;;;;;;;6.50;4.27;;;6.50;99.90;;;;;;4238524;28;20047;-40
2020/12/06 00:34:55;;;;;;;9.27;5.37;;;6.40;99.90;;;;;;4238228;28;20475;-51
2020/12/06 00:36:56;;;;;;;8.60;5.40;;;6.40;99.90;;;;;;4239702;28;20098;-39
2020/12/06 00:38:57;;;;;;;9.63;5.20;;;6.30;99.90;;;;;;4240120;27;20019;-43
2020/12/06 00:40:59;;;;;;;10.83;5.53;;;6.30;99.90;;;;;;4242781;27;20547;-38
2020/12/06 00:43:00;;;;;;;10.63;6.07;;;6.20;99.90;;;;;;4242094;27;20015;-40
2020/12/06 00:45:02;;;;;;;13.43;5.83;;;6.10;99.90;;;;;;4242586;27;20782;-38
2020/12/06 00:47:03;;;;;;;10.23;5.40;;;6.10;99.90;;;;;;4241820;27;20084;-43
2020/12/06 00:49:05;;;;;;;10.70;5.20;;;6.00;99.90;;;;;;4235193;27;20020;-41
2020/12/06 00:51:06;;;;;;;10.97;5.70;;;5.90;99.90;;;;;;4224592;28;20043;-39
2020/12/06 00:53:07;;;;;;;9.00;5.90;;;5.90;99.90;;;;;;4225307;28;20474;-44
2020/12/06 00:55:08;;;;;;;8.53;5.40;;;5.80;99.90;;;;;;4224800;28;20039;-40
2020/12/06 00:57:09;;;;;;;9.70;5.67;;;5.80;99.90;;;;;;4225381;28;20035;-43
2020/12/06 00:59:10;;;;;;;8.90;5.20;;;5.80;99.90;;;;;;4224602;28;20101;-44
2020/12/06 01:01:12;;;;;;;9.00;5.33;;;5.80;99.90;;;;;;4224544;28;20496;-44
2020/12/06 01:03:13;;;;;;;10.13;5.60;;;5.90;99.90;;;;;;4206690;28;20338;-40
2020/12/06 01:05:15;;;;;;;10.43;5.37;;;5.90;99.90;;;;;;4224518;28;20031;-39
2020/12/06 01:07:16;;;;;;;7.73;4.47;;;5.90;99.90;;;;;;4224625;28;20321;-39
2020/12/06 01:09:17;;;;;;;8.80;5.53;;;5.90;99.90;;;;;;4223336;28;20310;-40
2020/12/06 01:11:18;;;;;;;8.57;4.70;;;5.90;99.90;;;;;;4225063;28;20513;-42
2020/12/06 01:13:19;;;;;;;10.83;5.17;;;5.90;99.90;;;;;;4224387;28;20296;-39
2020/12/06 01:15:20;;;;;;;9.90;6.03;;;5.80;99.90;;;;;;4224830;28;20276;-42
2020/12/06 01:17:21;;;;;;;10.07;4.50;;;5.80;99.90;;;;;;4238024;27;20325;-41
2020/12/06 01:19:23;;;;;;;7.47;5.10;;;5.80;99.90;;;;;;4242145;27;20275;-46
2020/12/06 01:21:24;;;;;;;7.87;4.50;;;5.80;99.90;;;;;;4240897;27;20734;-46
2020/12/06 01:23:25;;;;;;;7.60;4.70;;;5.90;99.90;;;;;;4241868;27;20268;-48
2020/12/06 01:25:26;;;;;;;8.17;4.63;;;6.00;99.90;;;;;;4224855;27;21160;-40
2020/12/06 01:27:27;;;;;;;10.07;5.17;;;6.00;99.90;;;;;;4224942;28;20816;-42
2020/12/06 01:29:28;;;;;;;9.20;5.20;;;6.10;99.90;;;;;;4224185;28;20256;-44
2020/12/06 01:31:29;;;;;;;8.87;4.67;;;6.20;99.90;;;;;;4224689;28;20268;-48
2020/12/06 01:33:30;;;;;;;11.13;6.07;;;6.20;99.90;;;;;;4224099;28;20743;-44
2020/12/06 01:35:31;;;;;;;9.10;5.37;;;6.20;99.90;;;;;;4230357;27;21248;-41
2020/12/06 01:37:32;;;;;;;8.07;5.23;;;6.20;99.90;;;;;;4242061;27;20035;-38
2020/12/06 01:39:33;;;;;;;9.30;5.90;;;6.10;99.90;;;;;;4210960;28;20285;-40
2020/12/06 01:41:35;;;;;;;9.60;5.53;;;6.00;99.90;;;;;;4225169;28;20043;-39
2020/12/06 01:43:36;;;;;;;11.07;5.27;;;5.90;99.90;;;;;;4223883;28;20088;-44
2020/12/06 01:45:38;;;;;;;9.83;5.30;;;5.80;99.90;;;;;;4226059;27;20361;-45
2020/12/06 01:47:40;;;;;;;9.50;5.60;;;5.80;99.90;;;;;;4223787;28;20309;-39
2020/12/06 01:49:41;;;;;;;9.30;5.70;;;5.80;99.90;;;;;;4224773;28;20272;-44
2020/12/06 01:51:43;;;;;;;8.43;5.30;;;5.80;99.90;;;;;;4222596;28;20891;-39
2020/12/06 01:53:48;;;;;;;9.17;5.50;;;5.80;99.90;;;;;;4224236;28;20296;-39
2020/12/06 01:55:52;;;;;;;8.40;4.70;;;5.80;99.90;;;;;;4205620;28;20333;-40
2020/12/06 01:58:04;;;;;;;7.67;4.43;;;5.90;99.90;;;;;;4224002;28;20170;-41
2020/12/06 02:00:06;;;;;;;9.93;5.07;;;6.00;99.90;;;;;;4224024;28;20279;-42
2020/12/06 02:02:07;;;;;;;7.13;4.47;;;6.00;99.90;;;;;;4224670;28;20267;-43
2020/12/06 02:04:09;;;;;;;8.10;4.70;;;6.10;99.90;;;;;;4223672;28;20316;-40
2020/12/06 02:06:10;;;;;;;9.70;5.27;;;6.10;99.90;;;;;;4223564;28;20329;-40
2020/12/06 02:08:12;;;;;;;10.10;5.37;;;6.00;99.90;;;;;;4223992;28;20601;-39
2020/12/06 02:10:13;;;;;;;9.17;5.33;;;6.00;99.90;;;;;;4224618;28;20309;-39
2020/12/06 02:12:14;;;;;;;8.83;5.50;;;5.80;99.90;;;;;;4223587;28;20260;-39
2020/12/06 02:14:16;;;;;;;9.10;5.47;;;5.70;99.90;;;;;;4223509;28;20705;-40
2020/12/06 02:16:17;;;;;;;7.50;4.97;;;5.60;99.90;;;;;;4230573;27;20336;-39
2020/12/06 02:18:18;;;;;;;9.23;5.60;;;5.50;99.90;;;;;;4240751;27;20850;-44
2020/12/06 02:20:20;;;;;;;9.10;5.30;;;5.40;99.90;;;;;;4240759;27;20308;-40
2020/12/06 02:22:21;;;;;;;7.83;4.90;;;5.40;99.90;;;;;;4239767;27;21085;-40
2020/12/06 02:24:23;;;;;;;7.70;4.63;;;5.50;99.90;;;;;;4234297;27;20280;-40
2020/12/06 02:26:24;;;;;;;8.83;5.00;;;5.60;99.90;;;;;;4222815;28;20325;-39
2020/12/06 02:28:25;;;;;;;8.67;5.23;;;5.70;99.90;;;;;;4224024;28;20313;-41
2020/12/06 02:30:26;;;;;;;8.53;5.27;;;5.80;99.90;;;;;;4223278;28;20268;-39
2020/12/06 02:32:27;;;;;;;7.73;4.77;;;5.90;99.90;;;;;;4223516;27;20272;-39
2020/12/06 02:34:28;;;;;;;9.13;5.73;;;5.90;99.90;;;;;;4223230;28;20545;-46
2020/12/06 02:36:30;;;;;;;8.13;5.13;;;5.90;99.90;;;;;;4235629;27;20275;-39
2020/12/06 02:38:31;;;;;;;7.37;4.67;;;5.90;99.90;;;;;;4240940;27;20276;-51
2020/12/06 02:40:32;;;;;;;8.77;5.00;;;5.90;99.90;;;;;;4240630;27;20267;-45
2020/12/06 02:42:33;;;;;;;8.40;5.23;;;5.90;99.90;;;;;;4241298;27;20837;-38
2020/12/06 02:44:34;;;;;;;8.47;5.00;;;5.90;99.90;;;;;;4239699;27;20685;-45
2020/12/06 02:46:36;;;;;;;9.13;5.27;;;5.90;99.90;;;;;;4240674;27;20308;-40
2020/12/06 02:48:37;;;;;;;8.13;5.17;;;6.00;99.90;;;;;;4238549;27;20263;-42
2020/12/06 02:50:38;;;;;;;7.40;4.37;;;6.00;99.90;;;;;;4240390;27;20271;-40
2020/12/06 02:52:39;;;;;;;8.40;5.07;;;6.00;99.90;;;;;;4240184;27;20275;-41
2020/12/06 02:54:41;;;;;;;10.03;5.30;;;6.00;99.90;;;;;;4241040;27;20311;-51
2020/12/06 02:56:42;;;;;;;8.53;5.17;;;6.00;99.90;;;;;;4239890;27;20739;-41
2020/12/06 02:58:43;;;;;;;9.67;6.00;;;5.90;99.90;;;;;;4221969;28;20292;-41
2020/12/06 03:00:44;;;;;;;9.20;5.20;;;5.90;99.90;;;;;;4239309;27;20264;-39
2020/12/06 03:02:45;;;;;;;8.90;5.97;;;5.80;99.90;;;;;;4240894;27;20328;-48
2020/12/06 03:04:46;;;;;;;8.37;5.17;;;5.70;99.90;;;;;;4239180;27;20819;-42
2020/12/06 03:06:47;;;;;;;7.90;5.70;;;5.60;99.90;;;;;;4239879;27;20092;-41
2020/12/06 03:08:48;;;;;;;10.40;5.27;;;5.60;99.90;;;;;;4240025;27;20332;-40
2020/12/06 03:10:49;;;;;;;10.50;5.47;;;5.50;99.90;;;;;;4240151;27;20275;-43
2020/12/06 03:12:50;;;;;;;11.03;6.17;;;5.50;99.90;;;;;;4240124;27;21180;-43
2020/12/06 03:14:51;;;;;;;9.17;5.83;;;5.50;99.90;;;;;;4238933;27;20287;-44
2020/12/06 03:16:52;;;;;;;11.37;5.60;;;5.50;99.90;;;;;;4239949;27;20276;-40
2020/12/06 03:18:54;;;;;;;9.27;5.13;;;5.50;99.90;;;;;;4231549;27;20276;-40
2020/12/06 03:20:55;;;;;;;8.87;4.97;;;5.50;99.90;;;;;;4222273;28;20280;-41
2020/12/06 03:22:59;;;;;;;7.97;5.07;;;5.60;99.90;;;;;;4222176;28;20332;-46
2020/12/06 03:25:01;;;;;;;9.07;4.97;;;5.70;99.90;;;;;;4223318;27;20275;-43
2020/12/06 03:27:02;;;;;;;8.77;5.27;;;5.70;99.90;;;;;;4222463;28;20283;-46
2020/12/06 03:29:03;;;;;;;8.07;5.23;;;5.60;99.90;;;;;;4223066;28;20337;-47
2020/12/06 03:31:04;;;;;;;7.80;5.33;;;5.60;99.90;;;;;;4222907;28;20260;-43
2020/12/06 03:33:05;;;;;;;9.30;5.53;;;5.60;99.90;;;;;;4222413;28;20331;-42
2020/12/06 03:35:07;;;;;;;9.10;5.20;;;5.60;99.90;;;;;;4222121;28;20284;-39
2020/12/06 03:37:08;;;;;;;9.60;4.90;;;5.60;99.90;;;;;;4221994;28;20318;-41
2020/12/06 03:39:09;;;;;;;7.97;5.03;;;5.70;99.90;;;;;;4222517;28;20284;-45
2020/12/06 03:41:12;;;;;;;8.83;5.60;;;5.70;99.90;;;;;;4223172;28;20264;-39
2020/12/06 03:43:13;;;;;;;8.30;5.30;;;5.70;99.90;;;;;;4222814;28;20764;-40
2020/12/06 03:45:14;;;;;;;8.37;4.80;;;5.70;99.90;;;;;;4222233;28;20284;-41
2020/12/06 03:47:17;;;;;;;10.40;6.00;;;5.70;99.90;;;;;;4223376;28;20268;-46
2020/12/06 03:49:18;;;;;;;9.30;5.27;;;5.60;99.90;;;;;;4221360;28;20269;-43
2020/12/06 03:51:19;;;;;;;8.20;5.27;;;5.70;99.90;;;;;;4222688;28;20341;-42
2020/12/06 03:53:20;;;;;;;7.07;4.20;;;5.60;99.90;;;;;;4221581;28;20272;-43
2020/12/06 03:55:21;;;;;;;8.90;5.63;;;5.60;99.90;;;;;;4223139;28;20298;-40
2020/12/06 03:57:22;;;;;;;8.80;5.13;;;5.60;99.90;;;;;;4222302;28;20256;-39
2020/12/06 03:59:23;;;;;;;7.50;5.23;;;5.50;99.90;;;;;;4222007;28;20628;-42
2020/12/06 04:01:25;;;;;;;8.87;5.03;;;5.50;99.90;;;;;;4221758;28;20337;-44
2020/12/06 04:03:26;;;;;;;8.37;5.40;;;5.40;99.90;;;;;;4222418;28;20343;-41
2020/12/06 04:05:27;;;;;;;9.07;5.63;;;5.40;99.90;;;;;;4221725;28;20280;-39
2020/12/06 04:07:28;;;;;;;9.10;5.23;;;5.30;99.90;;;;;;4222200;28;20280;-45
2020/12/06 04:09:29;;;;;;;9.23;5.17;;;5.20;99.90;;;;;;4234193;28;20283;-41
2020/12/06 04:11:30;;;;;;;9.83;5.30;;;5.30;99.90;;;;;;4238964;28;20275;-40
2020/12/06 04:13:32;;;;;;;7.00;4.57;;;5.30;99.90;;;;;;4239308;27;20668;-38
2020/12/06 04:15:33;;;;;;;10.20;5.07;;;5.20;99.90;;;;;;4236185;28;20814;-45
2020/12/06 04:17:35;;;;;;;8.00;5.47;;;5.10;99.90;;;;;;4238624;28;20677;-38
2020/12/06 04:19:36;;;;;;;9.43;5.53;;;5.10;99.90;;;;;;4237759;28;20316;-43
2020/12/06 04:21:37;;;;;;;8.53;5.67;;;5.00;99.90;;;;;;4239425;28;20332;-42
2020/12/06 04:23:39;;;;;;;10.80;5.63;;;4.90;99.90;;;;;;4238065;28;20279;-39
2020/12/06 04:25:40;;;;;;;8.97;5.57;;;4.80;99.90;;;;;;4238787;28;20317;-43
2020/12/06 04:27:41;;;;;;;8.97;5.40;;;4.70;99.90;;;;;;4238271;28;20263;-40
2020/12/06 04:29:42;;;;;;;9.27;5.00;;;4.80;99.90;;;;;;4239284;28;20259;-38
2020/12/06 04:31:43;;;;;;;10.97;6.10;;;4.90;99.90;;;;;;4237964;28;20645;-42
2020/12/06 04:33:45;;;;;;;7.47;4.73;;;5.20;99.90;;;;;;4238169;28;20327;-40
2020/12/06 04:35:46;;;;;;;8.63;4.63;;;5.30;99.90;;;;;;4238082;28;20283;-46
2020/12/06 04:37:47;;;;;;;8.07;5.00;;;5.50;99.90;;;;;;4238180;28;20326;-37
2020/12/06 04:39:48;;;;;;;10.97;6.23;;;5.40;99.90;;;;;;4238204;28;20263;-39
2020/12/06 04:41:49;;;;;;;11.40;6.07;;;5.30;99.90;;;;;;4238377;28;20324;-41
2020/12/06 04:43:50;;;;;;;9.63;5.60;;;5.00;99.90;;;;;;4239204;28;20256;-41
2020/12/06 04:45:52;;;;;;;13.30;7.03;;;4.90;99.90;;;;;;4238923;28;20320;-42
2020/12/06 04:47:55;;;;;;;11.23;5.80;;;4.80;99.90;;;;;;4239040;28;20271;-42
2020/12/06 04:50:02;;;;;;;8.77;5.57;;;4.80;99.90;;;;;;4238016;28;21192;-42
2020/12/06 04:52:10;;;;;;;9.07;5.87;;;4.80;99.90;;;;;;4238947;28;20316;-42
2020/12/06 04:54:11;;;;;;;7.30;4.87;;;4.80;99.90;;;;;;4238055;28;20777;-41
2020/12/06 04:56:14;;;;;;;8.67;5.13;;;4.90;99.90;;;;;;4239292;28;20321;-48
2020/12/06 04:58:23;;;;;;;8.30;5.43;;;4.90;99.90;;;;;;4236211;28;21298;-41
2020/12/06 05:00:37;;;;;;;9.20;5.10;;;4.90;99.90;;;;;;4222355;28;20670;-44
2020/12/06 05:02:41;;;;;;;10.70;5.80;;;5.00;99.90;;;;;;4221828;28;20272;-48
2020/12/06 05:04:46;;;;;;;12.60;6.20;;;4.90;99.90;;;;;;4222292;28;20761;-43
2020/12/06 05:06:47;;;;;;;7.93;4.97;;;4.90;99.90;;;;;;4221618;28;20325;-42
2020/12/06 05:08:49;;;;;;;10.50;5.57;;;4.80;99.90;;;;;;4230765;28;20324;-43
2020/12/06 05:10:52;;;;;;;9.20;5.10;;;4.90;99.90;;;;;;4238185;28;20312;-44
2020/12/06 05:12:53;;;;;;;10.40;5.30;;;5.00;99.90;;;;;;4238731;28;20263;-40
2020/12/06 05:14:54;;;;;;;9.03;5.23;;;5.20;99.90;;;;;;4227394;28;20312;-49
2020/12/06 05:16:59;;;;;;;9.90;4.73;;;5.30;99.90;;;;;;4221555;28;20431;-38
2020/12/06 05:19:01;;;;;;;9.97;4.90;;;5.30;99.90;;;;;;4221242;28;20280;-39
2020/12/06 05:21:02;;;;;;;7.63;4.83;;;5.50;99.90;;;;;;4221200;28;20276;-38
2020/12/06 05:23:04;;;;;;;10.33;4.60;;;5.60;99.90;;;;;;4221254;28;20264;-46
2020/12/06 05:25:08;;;;;;;10.63;4.63;;;5.90;99.90;;;;;;4221701;28;20674;-45
2020/12/06 05:27:09;;;;;;;9.67;4.97;;;5.90;99.90;;;;;;4223925;28;20288;-43
2020/12/06 05:29:12;;;;;;;9.83;4.57;;;5.80;99.90;;;;;;4223601;28;21339;-40
2020/12/06 05:31:14;;;;;;;8.67;4.60;;;5.70;99.90;;;;;;4207037;28;20347;-40
2020/12/06 05:33:18;;;;;;;7.77;5.03;;;5.60;99.90;;;;;;4223758;28;20275;-43
2020/12/06 05:35:20;;;;;;;11.23;5.80;;;5.60;99.90;;;;;;4224419;28;20292;-40
2020/12/06 05:37:21;;;;;;;10.73;5.57;;;5.50;99.90;;;;;;4224081;28;20277;-40
2020/12/06 05:39:22;;;;;;;8.47;5.03;;;5.50;99.90;;;;;;4224672;28;20272;-43
2020/12/06 05:41:24;;;;;;;9.07;5.70;;;5.40;99.90;;;;;;4224371;28;20272;-41
2020/12/06 05:43:27;;;;;;;9.87;5.57;;;5.40;99.90;;;;;;4225117;28;20306;-38
2020/12/06 05:45:30;;;;;;;11.70;5.93;;;5.30;99.90;;;;;;4224252;28;20268;-42
2020/12/06 05:47:32;;;;;;;9.37;6.40;;;5.30;99.90;;;;;;4224872;28;20605;-41
2020/12/06 05:49:33;;;;;;;12.03;6.17;;;5.20;99.90;;;;;;4224306;27;20284;-41
2020/12/06 05:51:34;;;;;;;9.17;5.40;;;5.00;99.90;;;;;;4224551;28;20652;-45
2020/12/06 05:53:36;;;;;;;9.20;5.70;;;5.00;99.90;;;;;;4223468;28;20301;-40
2020/12/06 05:55:37;;;;;;;10.80;5.53;;;4.80;99.90;;;;;;4224353;28;20344;-40
2020/12/06 05:57:38;;;;;;;10.33;5.20;;;4.80;99.90;;;;;;4224131;28;20321;-41
2020/12/06 05:59:40;;;;;;;9.70;5.97;;;4.70;99.90;;;;;;4223068;28;20531;-49
2020/12/06 06:01:42;;;;;;;11.60;5.40;;;4.80;99.90;;;;;;4223402;28;20268;-42
2020/12/06 06:03:46;;;;;;;7.97;4.73;;;4.80;99.90;;;;;;4223994;28;20268;-40
2020/12/06 06:05:48;;;;;;;10.00;5.80;;;4.90;99.90;;;;;;4240418;27;20279;-38
2020/12/06 06:07:53;;;;;;;10.10;5.70;;;5.00;99.90;;;;;;4240222;27;20771;-42
2020/12/06 06:10:05;;;;;;;13.63;5.80;;;5.10;99.90;;;;;;4240375;27;20283;-47
2020/12/06 06:12:29;;;;;;;10.17;5.07;;;5.20;99.90;;;;;;4240982;27;20267;-41
2020/12/06 06:14:31;;;;;;;8.80;4.97;;;5.30;99.90;;;;;;4240434;27;20685;-43
2020/12/06 06:16:33;;;;;;;7.73;4.40;;;5.40;99.90;;;;;;4240110;27;20268;-39
2020/12/06 06:18:35;;;;;;;9.73;5.27;;;5.40;99.90;;;;;;4241167;27;20668;-40
2020/12/06 06:20:36;;;;;;;9.30;5.33;;;5.60;99.90;;;;;;4239411;27;20267;-39
2020/12/06 06:22:40;;;;;;;8.07;5.17;;;5.60;99.90;;;;;;4240841;27;20263;-44
2020/12/06 06:24:42;;;;;;;9.63;5.43;;;5.70;99.90;;;;;;4240453;27;20271;-41
2020/12/06 06:26:47;;;;;;;9.07;5.50;;;5.80;99.90;;;;;;4240783;27;20263;-40
2020/12/06 06:28:52;;;;;;;9.87;5.47;;;5.80;99.90;;;;;;4253651;27;20287;-43
2020/12/06 06:30:55;;;;;;;7.37;4.83;;;5.90;99.90;;;;;;4258479;27;20026;-48
2020/12/06 06:32:56;;;;;;;8.30;5.10;;;5.90;99.90;;;;;;4225629;27;20268;-39
2020/12/06 06:34:59;;;;;;;8.00;4.90;;;6.20;99.90;;;;;;4223164;28;20083;-40
2020/12/06 06:37:00;;;;;;;9.67;5.57;;;6.50;99.90;;;;;;4222301;28;20268;-41
2020/12/06 06:39:03;;;;;;;11.27;5.83;;;6.40;99.90;;;;;;4222930;27;20053;-41
2020/12/06 06:41:06;;;;;;;9.77;4.80;;;6.40;99.90;;;;;;4222543;28;20031;-42
2020/12/06 06:43:08;;;;;;;7.77;5.10;;;6.40;99.90;;;;;;4236976;27;20051;-42
2020/12/06 06:45:12;;;;;;;9.17;4.80;;;6.30;99.90;;;;;;4240361;27;20072;-40
2020/12/06 06:47:14;;;;;;;8.83;5.53;;;6.30;99.90;;;;;;4239666;27;20027;-42
2020/12/06 06:49:15;;;;;;;8.07;5.03;;;6.40;99.90;;;;;;4239957;27;20072;-43
2020/12/06 06:51:21;;;;;;;7.77;5.20;;;6.50;99.90;;;;;;4239386;27;20038;-39
2020/12/06 06:53:24;;;;;;;6.57;4.70;;;6.60;99.90;;;;;;4238845;27;20563;-44
2020/12/06 06:55:26;;;;;;;7.90;5.20;;;6.70;99.90;;;;;;4237626;27;20458;-40
2020/12/06 06:57:30;;;;;;;7.77;4.10;;;6.90;99.90;;;;;;4223429;28;20035;-40
2020/12/06 06:59:43;;;;;;;8.03;4.53;;;7.00;99.90;;;;;;4227390;27;20510;-54
2020/12/06 07:01:48;;;;;;;10.10;4.73;;;7.20;99.90;;;;;;4240503;27;20080;-41
2020/12/06 07:03:54;;;;;;;8.67;5.37;;;7.10;99.90;;;;;;4239074;27;20923;-42
2020/12/06 07:05:55;;;;;;;10.63;6.30;;;6.90;99.90;;;;;;4235139;27;20027;-37
2020/12/06 07:07:57;;;;;;;9.23;6.20;;;6.80;99.90;;;;;;4221959;28;20089;-40
2020/12/06 07:09:58;;;;;;;10.50;6.10;;;6.70;99.90;;;;;;4223796;28;20019;-47
2020/12/06 07:12:00;;;;;;;9.47;5.43;;;6.60;99.90;;;;;;4221833;28;20081;-43
2020/12/06 07:14:02;;;;;;;10.40;6.23;;;6.70;99.90;;;;;;4223067;28;20081;-40
2020/12/06 07:16:09;;;;;;;9.93;5.80;;;6.60;99.90;;;;;;4221927;28;20112;-39
2020/12/06 07:18:10;;;;;;;11.03;6.40;;;6.60;99.90;;;;;;4222283;28;20511;-41
2020/12/06 07:20:14;;;;;;;7.83;4.37;;;6.80;99.90;;;;;;4221299;28;20040;-43
2020/12/06 07:22:15;;;;;;;7.93;4.37;;;7.00;99.90;;;;;;4222022;28;21063;-47
2020/12/06 07:24:18;;;;;;;6.13;3.90;;;7.40;99.90;;;;;;4222482;28;20538;-42
2020/12/06 07:26:20;;;;;;;8.33;4.37;;;7.80;99.90;;;;;;4222561;28;20539;-43
2020/12/06 07:28:22;;;;;;;7.67;4.23;;;8.00;99.90;;;;;;4223272;27;20079;-42
2020/12/06 07:30:23;;;;;;;6.80;4.67;;;8.20;99.90;;;;;;4237440;27;20131;-49
2020/12/06 07:32:24;;;;;;;8.37;4.63;;;8.30;99.90;;;;;;4225082;27;20084;-43
2020/12/06 07:34:25;;;;;;;7.60;5.00;;;8.40;99.90;;;;;;4201632;28;20409;-49
2020/12/06 07:36:33;;;;;;;5.33;3.97;;;8.50;99.90;;;;;;4222578;28;20019;-45
2020/12/06 07:38:35;;;;;;;7.63;4.80;;;8.50;99.90;;;;;;4220901;28;20069;-43
2020/12/06 07:40:36;;;;;;;7.13;4.33;;;8.40;99.90;;;;;;4222526;28;20616;-39
2020/12/06 07:42:39;;;;;;;7.67;4.50;;;8.50;99.90;;;;;;4220623;28;20047;-49
2020/12/06 07:44:45;;;;;;;6.47;4.53;;;8.60;99.90;;;;;;4222359;28;20089;-39
2020/12/06 07:46:59;;;;;;;9.97;4.27;;;8.70;99.90;;;;;;4219610;27;20047;-38
2020/12/06 07:49:00;;;;;;;8.63;4.53;;;8.80;99.90;;;;;;4221530;28;20047;-39
2020/12/06 07:51:01;;;;;;;6.17;4.20;;;8.90;99.90;;;;;;4221058;28;20028;-39
2020/12/06 07:53:02;;;;;;;6.77;4.30;;;8.80;99.90;;;;;;4221665;28;20560;-45
2020/12/06 07:55:09;;;;;;;6.60;4.47;;;8.80;99.90;;;;;;4220792;28;20047;-39
2020/12/06 07:57:11;;;;;;;6.53;4.40;;;8.90;99.90;;;;;;4221944;28;20024;-42
2020/12/06 07:59:23;;;;;;;5.10;4.23;;;8.80;99.90;;;;;;4220541;28;20055;-45
2020/12/06 08:01:26;;;;;;;7.63;4.50;;;8.80;99.90;;;;;;4221165;28;20108;-49
2020/12/06 08:03:28;;;;;;;6.13;3.67;;;8.80;99.90;;;;;;4221127;28;20027;-43
2020/12/06 08:05:40;;;;;;;3.93;3.10;;;8.80;99.90;;;;;;4221013;28;20035;-40
2020/12/06 08:07:44;;;;;;;10.33;5.90;;;8.90;99.90;;;;;;4220897;28;20471;-42
2020/12/06 08:09:48;;;;;;;6.83;4.30;;;8.80;99.90;;;;;;4221424;28;20047;-38
2020/12/06 08:11:51;;;;;;;7.40;4.07;;;8.70;99.90;;;;;;4221379;28;20309;-51
2020/12/06 08:13:55;;;;;;;7.53;4.27;;;8.70;99.90;;;;;;4237940;27;20367;-41
2020/12/06 08:16:09;;;;;;;8.73;5.00;;;8.60;99.90;;;;;;4237701;28;20091;-37
2020/12/06 08:18:15;;;;;;;8.10;5.17;;;8.50;99.90;;;;;;4237488;28;20043;-43
2020/12/06 08:20:18;;;;;;;9.83;5.47;;;8.50;99.90;;;;;;4238213;28;20035;-39
2020/12/06 08:22:19;;;;;;;7.43;4.20;;;8.40;99.90;;;;;;4236981;28;20043;-41
2020/12/06 08:24:24;;;;;;;9.23;5.00;;;8.40;99.90;;;;;;4237976;28;20152;-44
2020/12/06 08:26:45;;;;;;;5.50;3.53;;;8.50;99.90;;;;;;4236922;28;20035;-50
2020/12/06 08:28:50;;;;;;;6.53;4.77;;;8.60;99.90;;;;;;4238516;28;20534;-50
2020/12/06 08:30:51;;;;;;;6.10;3.87;;;8.70;99.90;;;;;;4237014;27;20047;-53
2020/12/06 08:32:53;;;;;;;6.27;4.20;;;8.80;99.90;;;;;;4225050;28;20108;-42
2020/12/06 08:34:56;;;;;;;7.37;3.30;;;8.90;99.90;;;;;;4220970;28;20350;-46
2020/12/06 08:37:19;;;;;;;7.90;4.47;;;8.90;99.90;;;;;;4203159;28;20040;-46
2020/12/06 08:39:21;;;;;;;8.20;4.50;;;8.90;99.90;;;;;;4232226;28;20039;-50
2020/12/06 08:41:24;;;;;;;5.97;4.03;;;9.00;99.90;;;;;;4238827;28;20394;-42
2020/12/06 08:43:43;;;;;;;6.30;3.80;;;9.20;99.90;;;;;;4238327;28;20084;-42
2020/12/06 08:45:44;;;;;;;9.03;4.40;;;9.10;99.90;;;;;;4238309;28;20475;-40
2020/12/06 08:47:48;;;;;;;6.23;4.53;;;9.10;99.90;;;;;;4237668;28;20068;-43
2020/12/06 08:50:05;;;;;;;5.50;3.90;;;9.20;99.90;;;;;;4238125;28;20043;-36
2020/12/06 08:52:06;;;;;;;7.23;4.30;;;9.30;99.90;;;;;;4237733;28;20106;-42
2020/12/06 08:54:08;;;;;;;7.77;4.77;;;9.30;99.90;;;;;;4238897;28;20031;-39
2020/12/06 08:56:28;;;;;;;5.60;3.40;;;9.30;99.90;;;;;;4237160;28;20099;-48
2020/12/06 08:58:29;;;;;;;5.60;2.92;;;9.30;99.90;;;;;;4238062;27;20104;-38
2020/12/06 09:00:30;;;;;;;5.23;4.00;;;9.30;99.90;;;;;;4240075;27;20773;-37
2020/12/06 09:02:31;;;;;;;4.87;3.17;;;9.40;99.90;;;;;;4242226;27;20015;-39
2020/12/06 09:04:33;;;;;;;6.03;2.87;;;9.60;99.90;;;;;;4240920;27;20567;-40
2020/12/06 09:06:35;;;;;;;4.67;3.20;;;9.70;99.90;;;;;;4241133;27;20027;-40
2020/12/06 09:08:36;;;;;;;4.30;3.17;;;9.70;99.90;;;;;;4240308;27;20031;-38
2020/12/06 09:10:37;;;;;;;5.23;3.10;;;9.70;99.90;;;;;;4241320;27;20110;-40
2020/12/06 09:12:39;;;;;;;4.10;2.90;;;9.50;99.90;;;;;;4241415;27;20103;-37
2020/12/06 09:14:40;;;;;;;6.23;4.03;;;9.50;99.90;;;;;;4241685;27;20400;-37
2020/12/06 09:16:41;;;;;;;8.33;4.80;;;9.50;99.90;;;;;;4241637;27;20034;-41
2020/12/06 09:18:42;;;;;;;8.17;4.83;;;9.50;99.90;;;;;;4241502;27;20077;-40
2020/12/06 09:20:43;;;;;;;6.27;4.40;;;9.40;99.90;;;;;;4241365;27;20800;-38
2020/12/06 09:22:44;;;;;;;5.83;3.80;;;9.40;99.90;;;;;;4241639;27;20432;-45
2020/12/06 09:24:45;;;;;;;5.10;3.43;;;9.40;99.90;;;;;;4241462;27;20576;-45
2020/12/06 09:26:46;;;;;;;3.83;3.10;;;9.40;99.90;;;;;;4240251;27;20051;-50
2020/12/06 09:28:47;;;;;;;4.53;2.80;;;9.50;99.90;;;;;;4242356;27;20922;-43
2020/12/06 09:30:49;;;;;;;5.53;3.13;;;9.50;99.90;;;;;;4256032;27;20083;-41
2020/12/06 09:32:50;;;;;;;5.57;3.30;;;9.50;99.90;;;;;;4259510;27;20026;-41
2020/12/06 09:34:51;;;;;;;3.87;2.60;;;9.50;99.90;;;;;;4250489;27;20494;-36
2020/12/06 09:36:52;;;;;;;5.03;3.60;;;9.50;99.90;;;;;;4222514;28;20069;-39
2020/12/06 09:38:53;;;;;;;6.43;3.63;;;9.50;99.90;;;;;;4239802;27;20099;-43
2020/12/06 09:40:55;;;;;;;5.00;3.23;;;9.50;99.90;;;;;;4240720;27;20714;-46
2020/12/06 09:42:56;;;;;;;10.00;3.27;;;9.60;99.90;;;;;;4240696;27;20180;-35
2020/12/06 09:44:57;;;;;;;4.70;3.60;;;9.60;99.90;;;;;;4240700;27;20039;-40
2020/12/06 09:46:58;;;;;;;6.27;3.00;;;9.60;99.90;;;;;;4240942;27;20031;-37
2020/12/06 09:48:59;;;;;;;5.10;2.83;;;9.60;99.90;;;;;;4240588;27;20110;-37
2020/12/06 09:51:00;;;;;;;6.97;3.83;;;9.70;99.90;;;;;;4240511;27;20092;-38
2020/12/06 09:53:01;;;;;;;6.33;3.63;;;9.70;99.90;;;;;;4242448;27;20379;-43
2020/12/06 09:55:03;;;;;;;4.03;3.23;;;9.80;99.90;;;;;;4250270;27;20083;-47
2020/12/06 09:57:04;;;;;;;5.97;3.00;;;9.90;99.90;;;;;;4239657;27;20084;-38
2020/12/06 09:59:05;;;;;;;4.73;3.27;;;10.00;99.90;;;;;;4240601;27;20180;-42
2020/12/06 10:01:06;;;;;;;4.67;3.20;;;9.90;99.90;;;;;;4239590;27;20023;-38
2020/12/06 10:03:07;;;;;;;4.57;3.30;;;10.00;99.90;;;;;;4240730;27;20043;-39
2020/12/06 10:05:08;;;;;;;7.87;4.27;;;10.00;99.90;;;;;;4240156;27;20420;-44
2020/12/06 10:07:09;;;;;;;5.73;3.63;;;10.00;99.90;;;;;;4240433;27;20039;-42
2020/12/06 10:09:11;;;;;;;5.97;3.93;;;9.90;99.90;;;;;;4239368;27;20054;-51
2020/12/06 10:11:12;;;;;;;4.87;3.27;;;9.90;99.90;;;;;;4240058;27;20043;-46
2020/12/06 10:13:13;;;;;;;6.50;4.07;;;9.90;99.90;;;;;;4240174;27;20051;-47
2020/12/06 10:15:14;;;;;;;10.50;5.47;;;9.90;99.90;;;;;;4239988;27;20087;-40
2020/12/06 10:17:15;;;;;;;6.63;4.27;;;9.90;99.90;;;;;;4221392;28;20036;-40
2020/12/06 10:19:16;;;;;;;5.00;3.50;;;9.90;99.90;;;;;;4239401;27;20091;-44
2020/12/06 10:21:17;;;;;;;6.23;4.00;;;9.80;99.90;;;;;;4240359;27;20494;-38
2020/12/06 10:23:18;;;;;;;5.57;3.70;;;9.80;99.90;;;;;;4239444;27;20487;-54
2020/12/06 10:25:19;;;;;;;5.43;4.03;;;9.90;99.90;;;;;;4247446;27;20099;-41
2020/12/06 10:27:22;;;;;;;7.50;4.20;;;9.90;99.90;;;;;;4238736;27;20562;-42
2020/12/06 10:29:24;;;;;;;6.57;4.17;;;10.00;99.90;;;;;;4243171;27;20027;-35
2020/12/06 10:31:25;;;;;;;6.63;4.23;;;10.10;99.90;;;;;;4239291;27;20035;-39
2020/12/06 10:33:27;;;;;;;9.07;4.67;;;10.00;99.90;;;;;;4242628;27;20035;-42
2020/12/06 10:35:28;;;;;;;6.90;3.90;;;10.00;99.90;;;;;;4239381;27;20513;-39
2020/12/06 10:37:29;;;;;;;7.20;4.50;;;10.00;99.90;;;;;;4239335;27;20084;-41
2020/12/06 10:39:30;;;;;;;7.40;4.10;;;10.00;99.90;;;;;;4234866;27;20023;-38
2020/12/06 10:41:31;;;;;;;9.70;4.70;;;10.00;99.90;;;;;;4220432;28;20043;-38
2020/12/06 10:43:32;;;;;;;6.27;4.00;;;10.00;99.90;;;;;;4236840;27;20473;-38